Data for 09/03/2009

Time Sea-Level Adjusted Pressure Absolute Pressure Temperature Relative Humidity Dew Point   
(mb) (inHg) (mb) (inHg) (C) (F) (%) (C) (F)
00:05 1022 30.18 852 25.16 18 64.4 36 2.6 36.7
00:10 1022 30.18 851 25.13 18 64.4 36 2.9 37.2
00:15 1022 30.18 851 25.13 17.7 63.9 37 2.9 37.2
00:20 1022 30.18 851 25.13 17.5 63.5 37 2.8 37
00:25 1022 30.18 851 25.13 17.5 63.4 37 2.9 37.2
00:30 1022 30.18 851 25.13 17.6 63.6 38 3.1 37.5
00:35 1022 30.18 851 25.13 17.8 64 34 1.8 35.3
00:40 1022 30.18 851 25.13 18 64.5 34 2.2 36
00:45 1022 30.18 851 25.13 18.1 64.5 34 2 35.6
00:50 1022 30.18 851 25.13 18 64.4 34 2.2 36
00:55 1022 30.18 851 25.13 17.9 64.1 34 2.1 35.7
01:00 1022 30.18 851 25.13 17.9 64.3 34 2.1 35.8
01:05 1022 30.18 851 25.13 17.8 64.1 35 2.1 35.8
01:10 1022 30.18 851 25.13 17.8 64.1 35 2.1 35.8
01:15 1022 30.18 851 25.13 18 64.3 35 2.2 36
01:20 1022 30.18 851 25.13 18 64.3 34 2 35.5
01:25 1022 30.18 851 25.13 18 64.4 36 2.8 37
01:30 1022 30.18 851 25.13 18.2 64.7 33 1.7 35
01:35 1022 30.18 851 25.13 18.2 64.8 33 1.9 35.5
01:40 1022 30.18 851 25.13 18.2 64.7 34 2.2 36
01:45 1022 30.18 851 25.13 17.9 64.3 36 2.8 37
01:50 1022 30.18 851 25.13 17.8 64 35 2.3 36.2
01:55 1022 30.18 851 25.13 17.8 64.1 40 4 39.3
02:00 1022 30.18 851 25.13 18 64.5 35 2.5 36.5
02:05 1022 30.18 851 25.13 18.3 65 33 2 35.6
02:10 1022 30.18 851 25.13 18.3 64.9 36 3 37.4
02:15 1022 30.18 851 25.13 18.4 65 33 1.8 35.3
02:20 1022 30.18 852 25.16 18.3 64.9 33 2 35.6
02:25 1022 30.18 851 25.13 18.1 64.5 34 2 35.5
02:30 1022 30.18 851 25.13 17.8 64 36 2.7 36.8
02:35 1022 30.18 851 25.13 17.2 63 37 2.7 36.9
02:40 1022 30.18 851 25.13 16.8 62.2 42 3.7 38.7
02:45 1022 30.18 851 25.13 15.9 60.7 46 4.5 40.1
02:50 1022 30.18 851 25.13 16.1 60.9 42 3.2 37.8
02:55 1022 30.18 851 25.13 17 62.5 37 2.2 35.9
03:00 1022 30.18 851 25.13 17.4 63.3 37 2.6 36.6
03:05 1022 30.18 851 25.13 17.4 63.4 37 2.6 36.6
03:10 1022 30.18 851 25.13 17.3 63.1 37 2.5 36.5
03:15 1022 30.18 851 25.13 17.1 62.8 37 2.6 36.7
03:20 1022 30.18 851 25.13 16.7 62.1 41 3.6 38.4
03:25 1022 30.18 851 25.13 16.3 61.3 42 3.5 38.2
03:30 1022 30.18 851 25.13 16.2 61.1 42 3.5 38.3
03:35 1022 30.18 852 25.16 16.3 61.3 41 3 37.4
03:40 1022 30.18 851 25.13 16.6 61.9 38 2.2 36
03:45 1022 30.18 851 25.13 16.9 62.5 38 2.5 36.6
03:50 1022 30.18 851 25.13 17.3 63.2 37 2.8 37
03:55 1022 30.18 852 25.16 16.4 61.6 41 3.4 38.1
04:00 1022 30.18 852 25.16 15.9 60.5 40 2.4 36.3
04:05 1022 30.18 852 25.16 16.4 61.5 39 2.4 36.4
04:10 1022 30.18 852 25.16 16.5 61.7 38 2.1 35.8
04:15 1022 30.18 852 25.16 17.1 62.7 36 1.8 35.3
04:20 1022 30.18 852 25.16 17.2 62.9 37 2.4 36.3
04:25 1022 30.18 852 25.16 16.4 61.5 43 3.7 38.7
04:30 1022 30.18 852 25.16 15.6 60.1 42 2.8 37
04:35 1022 30.18 852 25.16 15.8 60.5 42 2.9 37.2
04:40 1022 30.18 852 25.16 16 60.8 40 2.6 36.8
04:45 1022 30.18 852 25.16 15.7 60.2 44 3.7 38.7
04:50 1022 30.18 851 25.13 15.1 59.3 45 3.5 38.2
04:55 1022 30.18 851 25.13 14.9 58.9 44 3 37.4
05:00 1022 30.18 851 25.13 15.1 59.2 46 3.8 38.8
05:05 1022 30.18 851 25.13 15.2 59.4 44 3.1 37.6
05:10 1022 30.18 851 25.13 15.4 59.6 43 2.8 37.1
05:15 1022 30.18 851 25.13 15.8 60.4 41 2.8 37.1
05:20 1022 30.18 851 25.13 16.2 61.2 42 3.5 38.2
05:25 1022 30.18 851 25.13 16.3 61.3 41 3 37.4
05:30 1022 30.18 851 25.13 16.2 61.1 42 3.4 38.1
05:35 1022 30.18 851 25.13 16 60.8 44 3.8 38.8
05:40 1022 30.18 851 25.13 15.9 60.7 44 3.8 38.9
05:45 1022 30.18 851 25.13 16 60.8 41 2.8 37
05:50 1022 30.18 851 25.13 16 60.8 42 3.1 37.6
05:55 1022 30.18 851 25.13 15.9 60.6 41 2.9 37.2
06:00 1022 30.18 851 25.13 16 60.8 40 2.6 36.6
06:05 1022 30.18 851 25.13 16.4 61.5 41 3.1 37.5
06:10 1022 30.18 851 25.13 16.4 61.5 40 2.8 37
06:15 1022 30.18 851 25.13 16.6 61.9 41 3.5 38.4
06:20 1022 30.18 851 25.13 16.8 62.2 37 2.3 36.2
06:25 1022 30.18 851 25.13 16.6 61.8 41 3.3 38
06:30 1022 30.18 851 25.13 16.1 60.9 42 3.1 37.6
06:35 1022 30.18 851 25.13 15.6 60.2 43 3.2 37.7
06:40 1022 30.18 851 25.13 15.5 59.9 42 2.9 37.2
06:45 1022 30.18 851 25.13 15.5 59.9 44 3.4 38.1
06:50 1022 30.18 851 25.13 15.5 59.9 41 2.5 36.5
06:55 1022 30.18 851 25.13 15.9 60.5 42 3 37.4
07:00 1022 30.18 851 25.13 15.7 60.2 42 3 37.4
07:05 1022 30.18 851 25.13 15.9 60.7 41 2.9 37.2
07:10 1022 30.18 851 25.13 15.8 60.5 42 3.1 37.6
07:15 1022 30.18 851 25.13 15.4 59.6 45 3.5 38.3
07:20 1022 30.18 851 25.13 15.4 59.6 41 2.4 36.4
07:25 1022 30.18 851 25.13 16.1 61 40 2.5 36.5
07:30 1022 30.18 851 25.13 16.7 62 45 4.9 40.9
07:35 1022 30.18 851 25.13 16.7 62 41 3.4 38.2
07:40 1022 30.18 851 25.13 16.3 61.4 42 3.6 38.4
07:45 1022 30.18 851 25.13 16.1 61 42 3.4 38
07:50 1022 30.18 851 25.13 16.1 60.9 43 3.5 38.4
07:55 1022 30.18 851 25.13 15.9 60.7 44 3.9 39
08:00 1022 30.18 851 25.13 15.9 60.5 43 3.3 37.9
08:05 1022 30.18 851 25.13 16.3 61.4 42 3.3 38
08:10 1022 30.18 851 25.13 16.7 62 42 3.9 39.1
08:15 1022 30.18 852 25.16 16.7 62.1 43 4.1 39.4
08:20 1022 30.18 852 25.16 17.2 62.9 40 3.7 38.7
08:25 1022 30.18 852 25.16 17.7 63.9 39 3.9 39
08:30 1022 30.18 852 25.16 18.1 64.6 41 4.7 40.5
08:35 1022 30.18 852 25.16 18.4 65.1 36 3.4 38.1
08:40 1022 30.18 852 25.16 18.8 65.8 40 4.9 40.7
08:45 1022 30.18 852 25.16 18.6 65.5 41 5.3 41.5
08:50 1022 30.18 852 25.16 18.5 65.4 40 5 40.9
08:55 1022 30.18 852 25.16 18.9 66 39 4.9 40.8
09:00 1022 30.18 852 25.16 19.9 67.9 35 4.2 39.6
09:05 1022 30.18 852 25.16 19.9 67.9 40 6 42.8
09:10 1022 30.18 852 25.16 19.8 67.6 36 4.3 39.8
09:15 1022 30.18 852 25.16 19.7 67.4 36 4.4 39.9
09:20 1022 30.18 852 25.16 19.4 66.8 36 4.1 39.3
09:25 1022 30.18 852 25.16 19.3 66.7 35 3.7 38.6
09:30 1022 30.18 852 25.16 19.3 66.7 36 3.9 39.1
09:35 1022 30.18 852 25.16 19.5 67 35 3.9 39.1
09:40 1022 30.18 852 25.16 19.7 67.5 36 4.3 39.8
09:45 1022 30.18 852 25.16 19.9 67.8 34 3.6 38.5
09:50 1022 30.18 852 25.16 20.3 68.5 31 2.5 36.6
09:55 1022 30.18 852 25.16 21.6 70.9 35 5.7 42.3
10:00 1022 30.18 852 25.16 21.7 71 36 6.2 43.1
10:05 1022 30.18 852 25.16 20.6 69 38 6 42.8
10:10 1022 30.18 852 25.16 20.4 68.8 37 5.5 41.9
10:15 1022 30.18 852 25.16 20.9 69.6 36 5.2 41.4
10:20 1022 30.18 852 25.16 20.9 69.7 33 4.3 39.8
10:25 1022 30.18 852 25.16 21.4 70.5 33 4.5 40.1
10:30 1022 30.18 852 25.16 21.6 70.8 32 4.6 40.2
10:35 1022 30.18 852 25.16 21.3 70.4 32 4.2 39.6
10:40 1022 30.18 852 25.16 21.9 71.4 30 3.9 39
10:45 1022 30.18 852 25.16 23.3 73.9 28 3.8 38.9
10:50 1022 30.18 852 25.16 23.7 74.6 28 4.3 39.7
10:55 1022 30.18 852 25.16 23.9 75 28 4.4 40
11:00 1022 30.18 852 25.16 23.2 73.8 30 5 41
11:05 1022 30.18 852 25.16 22.3 72.1 31 4.4 39.9
11:10 1022 30.18 852 25.16 22.3 72.1 29 3.7 38.6
11:15 1022 30.18 852 25.16 22.8 73.1 28 3.8 38.9
11:20 1022 30.18 852 25.16 23.7 74.6 27 3.7 38.6
11:25 1022 30.18 852 25.16 24.5 76.1 26 4 39.2
11:30 1022 30.18 851 25.13 23.8 74.9 28 4.3 39.7
11:35 1022 30.18 851 25.13 22.9 73.2 28 3.7 38.6
11:40 1022 30.18 851 25.13 23.4 74.1 27 3.5 38.3
11:45 1022 30.18 851 25.13 24 75.2 26 3.4 38.1
11:50 1022 30.18 851 25.13 24.2 75.6 26 3.8 38.9
11:55 1022 30.18 851 25.13 24.4 76 27 4.4 39.9
12:00 1022 30.18 851 25.13 24.4 75.9 26 3.6 38.6
12:05 1022 30.18 851 25.13 25.4 77.7 25 4.1 39.3
12:10 1022 30.18 851 25.13 25.7 78.2 25 4.3 39.7
12:15 1022 30.18 851 25.13 25.2 77.4 25 4.2 39.5
12:20 1022 30.18 851 25.13 26 78.9 26 5.1 41.1
12:25 1022 30.18 851 25.13 26.5 79.6 23 4.1 39.4
12:30 1022 30.18 851 25.13 26.9 80.4 23 4.3 39.8
12:35 1022 30.18 851 25.13 27.4 81.2 23 4.5 40.2
12:40 1022 30.18 851 25.13 28.2 82.7 22 5 40.9
12:45 1021 30.15 851 25.13 27.7 81.9 24 5.3 41.6
12:50 1021 30.15 850 25.1 27.8 82 23 5.1 41.1
12:55 1021 30.15 850 25.1 27.5 81.5 22 3.9 39.1
13:00 1021 30.15 850 25.1 27.9 82.3 21 4.2 39.6
13:05 1021 30.15 850 25.1 27.7 81.9 22 4.1 39.4
13:10 1021 30.15 850 25.1 28.6 83.5 21 4.4 40
13:15 1021 30.15 850 25.1 28 82.3 22 4.6 40.2
13:20 1021 30.15 850 25.1 27.3 81.2 22 3.8 38.8
13:25 1021 30.15 850 25.1 27.3 81.1 22 4.3 39.7
13:30 1021 30.15 850 25.1 28.1 82.6 22 4.6 40.3
13:35 1021 30.15 850 25.1 28.9 84 19 3 37.4
13:40 1020 30.12 850 25.1 28.7 83.7 22 5.3 41.6
13:45 1020 30.12 850 25.1 28.5 83.3 20 3.8 38.8
13:50 1020 30.12 850 25.1 29 84.2 22 5.2 41.3
13:55 1020 30.12 849 25.07 28.9 84 20 3.7 38.6
14:00 1020 30.12 849 25.07 28.9 84 20 4 39.2
14:05 1020 30.12 849 25.07 29.1 84.3 18 2.7 36.8
14:10 1020 30.12 849 25.07 28.5 83.3 18 2 35.7
14:15 1020 30.12 849 25.07 28.8 83.9 18 2.5 36.5
14:20 1020 30.12 849 25.07 28.9 83.9 18 2.3 36.2
14:25 1020 30.12 849 25.07 29.7 85.4 18 3.5 38.2
14:30 1020 30.12 849 25.07 29.4 85 17 2.3 36.1
14:35 1020 30.12 849 25.07 29 84.2 18 2.4 36.3
14:40 1020 30.12 849 25.07 29.1 84.4 17 1.9 35.5
14:45 1020 30.12 849 25.07 29.3 84.8 13 -1.1 29.9
14:50 1020 30.12 849 25.07 29.1 84.4 15 0.1 32.2
14:55 1020 30.12 849 25.07 28.9 84.1 14 -0.5 31.1
15:00 1020 30.12 849 25.07 29.4 84.8 15 0.8 33.4
15:05 1020 30.12 849 25.07 29.4 84.9 14 -0.4 31.3
15:10 1020 30.12 849 25.07 29.8 85.6 18 3.3 38
15:15 1020 30.12 849 25.07 30.1 86.1 15 1 33.8
15:20 1020 30.12 849 25.07 29.5 85.1 16 1.8 35.2
15:25 1020 30.12 849 25.07 28.7 83.6 17 1.5 34.8
15:30 1019 30.09 849 25.07 28.6 83.4 18 2.2 35.9
15:35 1019 30.09 849 25.07 29.1 84.5 17 1.7 35.1
15:40 1019 30.09 849 25.07 28.9 84 18 2.2 35.9
15:45 1019 30.09 848 25.04 29.1 84.4 18 2.4 36.2
15:50 1019 30.09 848 25.04 29.2 84.6 16 1.5 34.6
15:55 1019 30.09 848 25.04 28.7 83.6 18 2.6 36.8
16:00 1019 30.09 848 25.04 28.2 82.8 17 1.5 34.6
16:05 1019 30.09 848 25.04 28.2 82.8 17 1.3 34.3
16:10 1019 30.09 848 25.04 28.3 82.9 19 3 37.4
16:15 1019 30.09 848 25.04 28.1 82.6 18 2 35.6
16:20 1019 30.09 848 25.04 28.2 82.7 22 4.9 40.9
16:25 1019 30.09 849 25.07 27.5 81.6 20 2.9 37.2
16:30 1019 30.09 849 25.07 27 80.5 21 3.2 37.8
16:35 1019 30.09 849 25.07 26.2 79.2 22 2.9 37.3
16:40 1019 30.09 848 25.04 26 78.7 23 3.6 38.5
16:45 1019 30.09 848 25.04 26.2 79.1 20 1.6 34.9
16:50 1019 30.09 848 25.04 26.5 79.7 19 1.4 34.6
16:55 1019 30.09 848 25.04 26.6 79.8 18 0.8 33.4
17:00 1019 30.09 848 25.04 26.9 80.5 18 0.9 33.7
17:05 1019 30.09 848 25.04 27.5 81.4 17 0.2 32.4
17:10 1019 30.09 848 25.04 27.9 82.2 16 -0.1 31.8
17:15 1019 30.09 848 25.04 28 82.4 17 0.8 33.5
17:20 1019 30.09 848 25.04 27.6 81.7 17 0.8 33.5
17:25 1019 30.09 848 25.04 27.5 81.4 19 2 35.6
17:30 1019 30.09 848 25.04 27.3 81.1 19 1.9 35.4
17:35 1019 30.09 848 25.04 27.1 80.7 20 2.4 36.4
17:40 1019 30.09 848 25.04 27.2 80.9 20 2.8 37.1
17:45 1019 30.09 848 25.04 27.3 81.1 19 1.9 35.4
17:50 1019 30.09 848 25.04 27.4 81.4 19 2.1 35.9
17:55 1019 30.09 848 25.04 27.3 81.2 19 1.6 34.9
18:00 1018 30.06 848 25.04 27.2 81 18 1.3 34.3
18:05 1019 30.09 848 25.04 27.1 80.8 20 2.7 36.8
18:10 1019 30.09 848 25.04 26.9 80.4 21 2.9 37.2
18:15 1018 30.06 848 25.04 26.6 79.8 22 3.5 38.2
18:20 1018 30.06 848 25.04 26.3 79.4 22 3.4 38.2
18:25 1018 30.06 848 25.04 26.4 79.5 21 2.7 36.9
18:30 1018 30.06 848 25.04 26.5 79.6 21 2.8 37
18:35 1018 30.06 848 25.04 26.6 79.9 22 3.6 38.5
18:40 1018 30.06 848 25.04 26.3 79.4 22 3.1 37.6
18:45 1018 30.06 848 25.04 26.2 79.1 23 3.5 38.2
18:50 1018 30.06 848 25.04 26.1 78.9 24 4 39.1
18:55 1018 30.06 847 25.01 26 78.9 25 4.5 40.1
19:00 1018 30.06 847 25.01 25.9 78.6 24 4.1 39.4
19:05 1018 30.06 847 25.01 25.8 78.4 25 4.3 39.8
19:10 1018 30.06 847 25.01 25.7 78.2 27 5.5 41.9
19:15 1018 30.06 847 25.01 25.5 77.8 24 3.8 38.9
19:20 1018 30.06 847 25.01 25.4 77.7 25 4 39.2
19:25 1018 30.06 847 25.01 25.2 77.3 25 4.2 39.6
19:30 1018 30.06 847 25.01 25 76.9 26 4.5 40
19:35 1018 30.06 847 25.01 24.8 76.6 26 4.2 39.5
19:40 1018 30.06 847 25.01 24.5 76.1 28 4.8 40.6
19:45 1018 30.06 847 25.01 23.8 74.9 31 5.7 42.3
19:50 1018 30.06 847 25.01 23.5 74.3 29 4.7 40.4
19:55 1018 30.06 847 25.01 23.4 74.1 28 4.2 39.5
20:00 1018 30.06 847 25.01 23.4 74.1 28 3.9 39
20:05 1018 30.06 847 25.01 23.5 74.2 27 3.6 38.5
20:10 1018 30.06 847 25.01 23.5 74.3 27 3.7 38.7
20:15 1018 30.06 847 25.01 23.4 74.1 27 3.5 38.2
20:20 1018 30.06 847 25.01 23 73.5 29 4.2 39.6
20:25 1018 30.06 847 25.01 22.7 72.9 27 2.7 36.9
20:30 1018 30.06 847 25.01 22.9 73.3 26 2.7 36.8
20:35 1018 30.06 847 25.01 22.8 73.1 27 2.8 37.1
20:40 1018 30.06 848 25.04 22.6 72.6 27 3 37.4
20:45 1018 30.06 848 25.04 22.5 72.4 28 3.1 37.5
20:50 1018 30.06 848 25.04 22.2 72 30 4.1 39.3
20:55 1018 30.06 848 25.04 21.9 71.4 29 3.3 37.9
21:00 1018 30.06 848 25.04 21.7 71.1 29 3.1 37.6
21:05 1018 30.06 848 25.04 21.7 71.1 29 3.1 37.6
21:10 1018 30.06 848 25.04 21.6 70.8 30 3.4 38.1
21:15 1019 30.09 848 25.04 21.3 70.4 30 3.1 37.5
21:20 1019 30.09 848 25.04 21.5 70.6 31 3.9 38.9
21:25 1019 30.09 848 25.04 21.5 70.6 30 3.3 38
21:30 1019 30.09 848 25.04 21.1 70.1 35 5.3 41.5
21:35 1019 30.09 848 25.04 21.1 69.9 33 4.5 40.1
21:40 1019 30.09 848 25.04 21 69.8 30 3.2 37.7
21:45 1019 30.09 848 25.04 20.9 69.6 31 3.1 37.6
21:50 1019 30.09 848 25.04 20.7 69.2 31 2.9 37.3
21:55 1019 30.09 848 25.04 20.8 69.4 31 3.1 37.6
22:00 1019 30.09 848 25.04 20.7 69.3 31 3 37.4
22:05 1019 30.09 848 25.04 20.6 69.2 31 3.3 37.9
22:10 1019 30.09 848 25.04 20.3 68.6 33 3.6 38.4
22:15 1019 30.09 848 25.04 20.2 68.3 33 3.5 38.2
22:20 1019 30.09 848 25.04 20.1 68.2 32 3.2 37.8
22:25 1019 30.09 848 25.04 20 67.9 32 3.1 37.7
22:30 1019 30.09 848 25.04 20 67.9 32 2.9 37.2
22:35 1019 30.09 848 25.04 20 67.9 36 4.5 40
22:40 1019 30.09 848 25.04 19.4 67 37 4.6 40.3
22:45 1019 30.09 848 25.04 19.2 66.6 36 4 39.2
22:50 1019 30.09 848 25.04 19.2 66.6 37 4.4 39.9
22:55 1019 30.09 848 25.04 18.7 65.7 36 3.4 38.1
23:00 1019 30.09 849 25.07 18.9 65.9 37 4 39.3
23:05 1019 30.09 848 25.04 19.1 66.3 36 3.6 38.5
23:10 1019 30.09 848 25.04 19.1 66.4 39 5.1 41.2
23:15 1019 30.09 849 25.07 18.6 65.5 42 5.4 41.7
23:20 1019 30.09 848 25.04 18.1 64.5 43 5.5 41.9
23:25 1019 30.09 848 25.04 17.6 63.6 45 5.7 42.2
23:30 1019 30.09 848 25.04 17.4 63.3 44 5.1 41.2
23:35 1019 30.09 848 25.04 17.2 62.9 45 5.1 41.2
23:40 1019 30.09 848 25.04 17 62.7 44 4.8 40.7
23:45 1019 30.09 848 25.04 17.2 63 41 4.1 39.4
23:50 1019 30.09 848 25.04 17.4 63.3 42 4.3 39.8
23:55 1019 30.09 848 25.04 17.6 63.7 40 3.9 39.1
24:00 1019 30.09 848 25.04 17.7 63.9 41 4.4 40